Time;durP1;ratioP1;P1;durP2;ratioP2;P2;SDS_P1;SDS_P2;PMS_P1;PMS_P2;Temp;Humidity;BMP_temperature;BMP_pressure;BME280_temperature;BME280_humidity;BME280_pressure;Samples;Min_cycle;Max_cycle;Signal;HPM_P1;HPM_P2
2021/08/15 00:02:00;;;;;;;4.22;3.03;;;25.40;99.90;;;;;;5011642;28;20546;-66
2021/08/15 00:04:26;;;;;;;4.90;2.97;;;25.40;99.90;;;;;;5011541;28;20108;-66
2021/08/15 00:06:52;;;;;;;3.47;2.70;;;25.40;99.90;;;;;;5010916;28;20104;-66
2021/08/15 00:09:18;;;;;;;3.67;2.63;;;25.40;99.90;;;;;;5011413;28;20026;-66
2021/08/15 00:11:44;;;;;;;4.53;3.00;;;25.30;99.90;;;;;;5011428;28;20037;-66
2021/08/15 00:14:09;;;;;;;3.88;2.75;;;25.30;99.90;;;;;;5011755;28;20025;-66
2021/08/15 00:16:37;;;;;;;3.88;2.80;;;25.30;99.90;;;;;;5011001;28;20053;-66
2021/08/15 00:19:05;;;;;;;4.65;2.72;;;25.30;99.90;;;;;;5011470;28;20092;-66
2021/08/15 00:21:35;;;;;;;5.22;3.20;;;25.30;99.90;;;;;;5011645;28;20050;-66
2021/08/15 00:24:01;;;;;;;4.82;3.15;;;25.30;99.90;;;;;;5011201;28;20026;-66
2021/08/15 00:26:26;;;;;;;4.18;3.03;;;25.30;99.90;;;;;;5011391;28;20083;-66
2021/08/15 00:28:52;;;;;;;4.25;2.83;;;25.30;99.90;;;;;;5011242;28;20034;-66
2021/08/15 00:31:18;;;;;;;5.07;3.20;;;25.30;99.90;;;;;;5011318;28;20018;-66
2021/08/15 00:33:44;;;;;;;5.07;2.88;;;25.30;99.90;;;;;;5011032;28;20034;-66
2021/08/15 00:36:09;;;;;;;4.30;2.92;;;25.30;99.90;;;;;;5011899;28;20057;-66
2021/08/15 00:38:35;;;;;;;4.00;2.75;;;25.30;99.90;;;;;;5011676;28;20389;-66
2021/08/15 00:41:02;;;;;;;4.25;3.10;;;25.30;99.90;;;;;;5011239;28;20026;-65
2021/08/15 00:43:30;;;;;;;3.85;2.92;;;25.30;99.90;;;;;;5011264;28;20553;-65
2021/08/15 00:45:56;;;;;;;4.10;3.08;;;25.30;99.90;;;;;;5011080;28;20430;-66
2021/08/15 00:48:22;;;;;;;4.55;2.85;;;25.20;99.90;;;;;;5010481;28;20128;-65
2021/08/15 00:50:47;;;;;;;3.75;2.85;;;25.20;99.90;;;;;;5011385;28;20029;-65
2021/08/15 00:53:13;;;;;;;4.47;3.00;;;25.20;99.90;;;;;;5010659;28;20034;-65
2021/08/15 00:55:39;;;;;;;3.50;2.83;;;25.20;99.90;;;;;;5011692;28;20529;-65
2021/08/15 00:58:08;;;;;;;4.82;2.90;;;25.20;99.90;;;;;;5011328;28;20080;-66
2021/08/15 01:00:37;;;;;;;4.28;2.78;;;25.20;99.90;;;;;;5010948;28;20482;-65
2021/08/15 01:03:03;;;;;;;3.67;3.00;;;25.20;99.90;;;;;;5011051;28;20034;-65
2021/08/15 01:05:29;;;;;;;3.85;2.70;;;25.10;99.90;;;;;;5010877;28;20080;-66
2021/08/15 01:07:55;;;;;;;4.15;2.75;;;25.10;99.90;;;;;;5010433;28;20046;-65
2021/08/15 01:10:21;;;;;;;3.17;2.53;;;25.10;99.90;;;;;;5011108;28;20093;-65
2021/08/15 01:12:47;;;;;;;3.67;2.80;;;25.10;99.90;;;;;;5011258;28;20033;-65
2021/08/15 01:15:13;;;;;;;4.43;2.97;;;25.10;99.90;;;;;;5010856;28;20026;-65
2021/08/15 01:17:40;;;;;;;3.97;2.47;;;25.10;99.90;;;;;;5010425;28;20508;-65
2021/08/15 01:20:07;;;;;;;4.18;2.90;;;25.10;99.90;;;;;;5011196;28;20058;-65
2021/08/15 01:22:38;;;;;;;3.53;2.60;;;25.10;99.90;;;;;;5009692;28;20061;-65
2021/08/15 01:25:05;;;;;;;4.15;2.60;;;25.10;99.90;;;;;;5010862;28;20104;-65
2021/08/15 01:27:39;;;;;;;3.30;2.63;;;25.10;99.90;;;;;;5010363;28;20069;-65
2021/08/15 01:30:10;;;;;;;3.95;3.03;;;25.10;99.90;;;;;;5012173;28;20389;-65
2021/08/15 01:32:38;;;;;;;4.97;2.90;;;25.10;99.90;;;;;;5014580;28;20061;-65
2021/08/15 01:35:05;;;;;;;3.90;2.92;;;25.10;99.90;;;;;;5014069;28;20057;-65
2021/08/15 01:37:30;;;;;;;3.22;2.70;;;25.00;99.90;;;;;;5013825;28;20034;-65
2021/08/15 01:40:01;;;;;;;4.45;2.67;;;25.00;99.90;;;;;;5014306;28;20033;-65
2021/08/15 01:42:27;;;;;;;5.32;2.58;;;25.10;99.90;;;;;;5013529;28;20124;-65
2021/08/15 01:44:52;;;;;;;4.82;2.58;;;25.00;99.90;;;;;;5014043;28;20097;-65
2021/08/15 01:47:18;;;;;;;3.58;2.58;;;25.00;99.90;;;;;;5013649;28;20124;-66
2021/08/15 01:49:44;;;;;;;4.38;2.60;;;25.00;99.90;;;;;;5014183;28;20481;-65
2021/08/15 01:52:10;;;;;;;5.22;2.50;;;25.00;99.90;;;;;;5014516;28;20026;-66
2021/08/15 01:54:35;;;;;;;3.60;2.63;;;25.00;99.90;;;;;;5014089;28;20022;-65
2021/08/15 01:57:01;;;;;;;4.18;2.65;;;25.00;99.90;;;;;;5013850;28;20030;-65
2021/08/15 01:59:27;;;;;;;5.00;3.10;;;25.00;99.90;;;;;;5013529;28;20147;-65
2021/08/15 02:01:55;;;;;;;3.03;2.30;;;24.90;99.90;;;;;;5013966;28;20066;-65
2021/08/15 02:04:22;;;;;;;4.45;2.78;;;24.90;99.90;;;;;;5013674;28;20036;-65
2021/08/15 02:06:47;;;;;;;3.90;2.60;;;24.90;99.90;;;;;;5013062;28;20032;-65
2021/08/15 02:09:13;;;;;;;4.30;2.63;;;24.90;99.90;;;;;;5012955;28;20026;-65
2021/08/15 02:11:38;;;;;;;4.90;2.90;;;24.90;99.90;;;;;;5014000;28;20022;-65
2021/08/15 02:14:04;;;;;;;2.95;2.40;;;24.90;99.90;;;;;;5013235;28;20045;-65
2021/08/15 02:16:29;;;;;;;4.13;2.35;;;24.90;99.90;;;;;;5013219;28;20105;-65
2021/08/15 02:18:55;;;;;;;3.55;2.50;;;24.90;99.90;;;;;;5013356;28;20034;-65
2021/08/15 02:21:21;;;;;;;3.92;2.88;;;24.90;99.90;;;;;;5013693;28;20516;-65
2021/08/15 02:23:46;;;;;;;3.83;2.80;;;24.90;99.90;;;;;;5013568;28;20056;-65
2021/08/15 02:26:12;;;;;;;4.60;2.45;;;24.90;99.90;;;;;;5012696;28;20083;-66
2021/08/15 02:28:38;;;;;;;3.63;2.72;;;24.90;99.90;;;;;;5012128;28;20129;-65
2021/08/15 02:31:03;;;;;;;4.50;2.78;;;24.90;99.90;;;;;;5013319;28;20351;-65
2021/08/15 02:33:29;;;;;;;3.08;2.22;;;24.90;99.90;;;;;;5013184;28;21036;-65
2021/08/15 02:35:56;;;;;;;3.10;2.33;;;24.80;99.90;;;;;;5013208;28;20080;-65
2021/08/15 02:38:23;;;;;;;3.92;2.78;;;24.90;99.90;;;;;;5012887;28;20030;-65
2021/08/15 02:40:49;;;;;;;3.53;2.40;;;24.90;99.90;;;;;;5012958;28;20021;-65
2021/08/15 02:43:15;;;;;;;4.28;2.47;;;24.80;99.90;;;;;;5012965;28;20053;-65
2021/08/15 02:45:40;;;;;;;3.20;2.33;;;24.80;99.90;;;;;;5012795;28;20111;-66
2021/08/15 02:48:06;;;;;;;4.15;2.70;;;24.80;99.90;;;;;;5012986;28;20041;-65
2021/08/15 02:50:32;;;;;;;4.20;2.65;;;24.80;99.90;;;;;;5012450;28;20049;-65
2021/08/15 02:52:57;;;;;;;3.63;2.55;;;24.80;99.90;;;;;;5012983;28;20026;-65
2021/08/15 02:55:23;;;;;;;3.33;2.50;;;24.80;99.90;;;;;;5012522;28;20117;-65
2021/08/15 02:57:48;;;;;;;4.50;2.65;;;24.80;99.90;;;;;;5012526;28;20026;-65
2021/08/15 03:00:14;;;;;;;3.45;2.33;;;24.70;99.90;;;;;;5012383;28;20084;-64
2021/08/15 03:02:41;;;;;;;3.83;2.63;;;24.70;99.90;;;;;;5013034;28;20516;-65
2021/08/15 03:05:08;;;;;;;3.95;2.63;;;24.70;99.90;;;;;;5012655;28;20029;-65
2021/08/15 03:07:34;;;;;;;4.28;2.88;;;24.70;99.90;;;;;;5012087;28;20100;-65
2021/08/15 03:10:00;;;;;;;4.00;2.80;;;24.70;99.90;;;;;;5012273;28;20446;-65
2021/08/15 03:12:26;;;;;;;3.75;2.85;;;24.70;99.90;;;;;;5012192;28;20030;-65
2021/08/15 03:14:52;;;;;;;4.93;2.88;;;24.70;99.90;;;;;;5012654;28;20030;-65
2021/08/15 03:17:17;;;;;;;3.70;2.67;;;24.70;99.90;;;;;;5011408;28;20076;-65
2021/08/15 03:19:43;;;;;;;4.15;2.85;;;24.70;99.90;;;;;;5012265;28;20030;-66
2021/08/15 03:22:08;;;;;;;4.18;2.63;;;24.70;99.90;;;;;;5012930;28;20105;-65
2021/08/15 03:24:35;;;;;;;4.53;2.35;;;24.60;99.90;;;;;;5012004;28;20484;-65
2021/08/15 03:27:01;;;;;;;3.33;2.60;;;24.60;99.90;;;;;;5012320;28;20038;-66
2021/08/15 03:29:27;;;;;;;3.38;2.45;;;24.60;99.90;;;;;;5011639;28;20041;-65
2021/08/15 03:31:53;;;;;;;3.53;2.22;;;24.60;99.90;;;;;;5010860;28;20022;-65
2021/08/15 03:34:19;;;;;;;3.65;2.72;;;24.60;99.90;;;;;;5012073;28;20378;-66
2021/08/15 03:36:49;;;;;;;3.60;2.25;;;24.60;99.90;;;;;;5012270;28;20474;-65
2021/08/15 03:39:15;;;;;;;4.22;2.40;;;24.60;99.90;;;;;;5011693;28;20033;-66
2021/08/15 03:41:41;;;;;;;2.92;2.10;;;24.60;99.90;;;;;;5010554;28;20029;-65
2021/08/15 03:44:07;;;;;;;3.47;2.10;;;24.50;99.90;;;;;;5011892;28;20028;-65
2021/08/15 03:46:33;;;;;;;4.32;2.40;;;24.50;99.90;;;;;;5011436;28;20032;-65
2021/08/15 03:48:58;;;;;;;4.35;2.25;;;24.50;99.90;;;;;;5012038;28;20053;-65
2021/08/15 03:51:24;;;;;;;3.28;2.45;;;24.50;99.90;;;;;;5011461;28;20041;-65
2021/08/15 03:53:50;;;;;;;2.70;1.90;;;24.50;99.90;;;;;;5011337;28;20493;-65
2021/08/15 03:56:15;;;;;;;2.88;2.47;;;24.50;99.90;;;;;;5011043;28;20030;-66
2021/08/15 03:58:41;;;;;;;3.40;2.58;;;24.50;99.90;;;;;;5009460;28;20041;-65
2021/08/15 04:01:06;;;;;;;3.72;2.40;;;24.40;99.90;;;;;;5011625;28;20037;-65
2021/08/15 04:03:32;;;;;;;3.05;2.40;;;24.40;99.90;;;;;;5010827;28;20030;-65
2021/08/15 04:06:00;;;;;;;3.45;2.47;;;24.40;99.90;;;;;;5011804;28;20470;-65
2021/08/15 04:08:26;;;;;;;3.00;2.20;;;24.40;99.90;;;;;;5011018;28;20485;-65
2021/08/15 04:10:52;;;;;;;3.60;2.35;;;24.40;99.90;;;;;;5011855;28;20018;-66
2021/08/15 04:13:18;;;;;;;2.55;1.73;;;24.40;99.90;;;;;;5011006;28;20478;-65
2021/08/15 04:15:44;;;;;;;3.58;2.30;;;24.40;99.90;;;;;;5010214;28;20143;-65
2021/08/15 04:18:10;;;;;;;3.25;2.30;;;24.40;99.90;;;;;;5010808;28;20053;-65
2021/08/15 04:20:36;;;;;;;3.30;2.20;;;24.40;99.90;;;;;;5011833;28;20026;-65
2021/08/15 04:23:01;;;;;;;4.82;2.72;;;24.40;99.90;;;;;;5011493;28;20026;-65
2021/08/15 04:25:27;;;;;;;3.45;2.30;;;24.40;99.90;;;;;;5011116;28;20036;-65
2021/08/15 04:27:53;;;;;;;5.18;2.97;;;24.30;99.90;;;;;;5011398;28;20038;-65
2021/08/15 04:30:18;;;;;;;3.35;2.15;;;24.30;99.90;;;;;;5011386;28;20418;-65
2021/08/15 04:32:44;;;;;;;3.42;2.45;;;24.30;99.90;;;;;;5011505;28;20385;-65
2021/08/15 04:35:10;;;;;;;2.92;2.30;;;24.30;99.90;;;;;;5011477;28;20026;-65
2021/08/15 04:37:35;;;;;;;3.45;2.25;;;24.30;99.90;;;;;;5011409;28;20033;-66
2021/08/15 04:40:02;;;;;;;4.15;2.35;;;24.30;99.90;;;;;;5011211;28;20036;-65
2021/08/15 04:42:27;;;;;;;3.17;2.40;;;24.30;99.90;;;;;;5011134;28;20037;-66
2021/08/15 04:44:53;;;;;;;3.10;2.20;;;24.20;99.90;;;;;;5010339;28;20033;-65
2021/08/15 04:47:18;;;;;;;3.45;2.65;;;24.30;99.90;;;;;;5009559;28;20049;-65
2021/08/15 04:49:44;;;;;;;3.78;2.35;;;24.20;99.90;;;;;;5011452;28;20537;-65
2021/08/15 04:52:10;;;;;;;4.05;2.40;;;24.20;99.90;;;;;;5011392;28;20038;-65
2021/08/15 04:54:35;;;;;;;4.05;2.22;;;24.20;99.90;;;;;;5011185;28;20377;-65
2021/08/15 04:57:01;;;;;;;3.33;2.15;;;24.20;99.90;;;;;;5011226;28;20025;-65
2021/08/15 04:59:27;;;;;;;3.97;2.83;;;24.20;99.90;;;;;;5010988;28;20109;-65
2021/08/15 05:01:53;;;;;;;3.22;2.40;;;24.20;99.90;;;;;;5010750;28;20033;-65
2021/08/15 05:04:19;;;;;;;3.50;2.40;;;24.20;99.90;;;;;;5011113;28;20370;-65
2021/08/15 05:06:45;;;;;;;3.85;2.55;;;24.20;99.90;;;;;;5014226;28;20068;-65
2021/08/15 05:09:11;;;;;;;2.90;2.10;;;24.20;99.90;;;;;;5014300;28;20026;-66
2021/08/15 05:11:37;;;;;;;3.85;2.60;;;24.20;99.90;;;;;;5014963;28;20551;-65
2021/08/15 05:14:05;;;;;;;3.90;2.50;;;24.20;99.90;;;;;;5013503;28;20481;-65
2021/08/15 05:16:30;;;;;;;3.70;2.75;;;24.10;99.90;;;;;;5014662;28;20030;-65
2021/08/15 05:18:56;;;;;;;4.20;2.60;;;24.10;99.90;;;;;;5014277;28;20052;-65
2021/08/15 05:21:22;;;;;;;3.53;2.20;;;24.10;99.90;;;;;;5014430;28;20073;-65
2021/08/15 05:23:47;;;;;;;3.28;2.53;;;24.20;99.90;;;;;;5014149;28;20021;-65
2021/08/15 05:26:13;;;;;;;3.08;2.20;;;24.10;99.90;;;;;;5013921;28;20405;-65
2021/08/15 05:28:38;;;;;;;3.78;2.45;;;24.10;99.90;;;;;;5014654;28;20040;-65
2021/08/15 05:31:04;;;;;;;3.60;2.60;;;24.20;99.90;;;;;;5014756;28;20030;-66
2021/08/15 05:33:30;;;;;;;3.03;2.20;;;24.20;99.90;;;;;;5013841;28;20041;-65
2021/08/15 05:35:55;;;;;;;4.13;2.50;;;24.10;99.90;;;;;;5014435;28;20458;-65
2021/08/15 05:38:21;;;;;;;3.38;2.45;;;24.10;99.90;;;;;;5013910;28;20101;-65
2021/08/15 05:40:46;;;;;;;3.92;2.53;;;24.10;99.90;;;;;;5013932;28;20450;-65
2021/08/15 05:43:12;;;;;;;3.33;2.35;;;24.10;99.90;;;;;;5014222;28;20034;-65
2021/08/15 05:45:38;;;;;;;4.45;2.85;;;24.00;99.90;;;;;;5014427;28;20084;-66
2021/08/15 05:48:07;;;;;;;4.47;2.45;;;24.00;99.90;;;;;;5013542;28;20092;-65
2021/08/15 05:50:33;;;;;;;3.15;2.45;;;24.00;99.90;;;;;;5013795;28;20458;-65
2021/08/15 05:52:59;;;;;;;4.35;2.42;;;24.00;99.90;;;;;;5013831;28;20053;-66
2021/08/15 05:55:25;;;;;;;3.08;2.40;;;24.00;99.90;;;;;;5013753;28;20054;-65
2021/08/15 05:57:50;;;;;;;4.43;2.55;;;24.00;99.90;;;;;;5013882;28;20496;-66
2021/08/15 06:00:16;;;;;;;3.95;2.65;;;24.10;99.90;;;;;;5013054;28;20041;-65
2021/08/15 06:02:43;;;;;;;3.30;2.35;;;24.10;99.90;;;;;;5013394;28;20061;-65
2021/08/15 06:05:10;;;;;;;3.70;2.80;;;24.10;99.90;;;;;;5014218;28;20108;-65
2021/08/15 06:07:36;;;;;;;3.25;2.30;;;24.10;99.90;;;;;;5013839;28;20109;-65
2021/08/15 06:10:02;;;;;;;4.35;2.55;;;24.10;99.90;;;;;;5013777;28;20161;-65
2021/08/15 06:12:28;;;;;;;3.40;2.72;;;24.20;99.90;;;;;;5013527;28;20040;-65
2021/08/15 06:14:53;;;;;;;3.97;2.85;;;24.20;99.90;;;;;;5013328;28;20026;-65
2021/08/15 06:17:19;;;;;;;4.35;2.50;;;24.20;99.90;;;;;;5012456;28;20478;-65
2021/08/15 06:19:45;;;;;;;3.00;2.17;;;24.20;99.90;;;;;;5012896;28;20132;-65
2021/08/15 06:22:10;;;;;;;3.60;2.55;;;24.20;99.80;;;;;;5013220;28;20022;-65
2021/08/15 06:24:36;;;;;;;5.80;2.80;;;24.20;99.80;;;;;;5013548;28;20031;-65
2021/08/15 06:27:03;;;;;;;4.15;2.55;;;24.20;99.80;;;;;;5013212;28;20454;-65
2021/08/15 06:29:29;;;;;;;3.97;2.60;;;24.30;99.70;;;;;;5012901;28;20068;-65
2021/08/15 06:31:55;;;;;;;3.28;2.50;;;24.30;99.70;;;;;;5013433;28;20029;-65
2021/08/15 06:34:21;;;;;;;5.00;3.03;;;24.20;99.60;;;;;;5012860;28;20037;-65
2021/08/15 06:36:46;;;;;;;3.13;2.55;;;24.20;99.70;;;;;;5013639;28;20381;-65
2021/08/15 06:39:12;;;;;;;4.80;2.63;;;24.20;99.60;;;;;;5012064;28;20421;-65
2021/08/15 06:41:38;;;;;;;3.88;2.47;;;24.20;99.60;;;;;;5013454;28;20044;-65
2021/08/15 06:44:04;;;;;;;3.97;2.45;;;24.20;99.50;;;;;;5012863;28;20480;-65
2021/08/15 06:46:30;;;;;;;3.85;2.70;;;24.20;99.60;;;;;;5012483;28;20042;-65
2021/08/15 06:48:55;;;;;;;4.85;2.83;;;24.30;99.50;;;;;;5012259;28;20157;-65
2021/08/15 06:51:21;;;;;;;4.38;2.67;;;24.30;99.50;;;;;;5012479;28;20061;-64
2021/08/15 06:53:47;;;;;;;4.07;2.72;;;24.30;99.50;;;;;;5012944;28;20053;-64
2021/08/15 06:56:12;;;;;;;3.80;2.50;;;24.30;99.70;;;;;;5012229;28;20030;-63
2021/08/15 06:58:38;;;;;;;3.78;2.63;;;24.30;99.90;;;;;;5012674;28;20033;-66
2021/08/15 07:01:04;;;;;;;3.42;2.72;;;24.30;99.60;;;;;;5012842;28;20032;-66
2021/08/15 07:03:30;;;;;;;4.03;2.75;;;24.30;99.90;;;;;;5010718;28;20052;-66
2021/08/15 07:05:57;;;;;;;6.85;3.22;;;24.30;99.90;;;;;;5012129;28;20105;-66
2021/08/15 07:08:22;;;;;;;5.78;3.70;;;24.30;99.90;;;;;;5012179;28;20041;-66
2021/08/15 07:10:49;;;;;;;6.55;3.90;;;24.20;99.90;;;;;;5012300;28;20030;-66
2021/08/15 07:13:19;;;;;;;7.40;4.32;;;24.20;99.90;;;;;;5012507;28;20030;-65
2021/08/15 07:15:45;;;;;;;9.38;4.43;;;24.20;99.90;;;;;;5005768;28;20025;-65
2021/08/15 07:18:11;;;;;;;6.72;3.38;;;24.20;99.90;;;;;;5012276;28;20029;-65
2021/08/15 07:20:37;;;;;;;9.18;4.65;;;24.20;99.90;;;;;;5012907;28;20044;-66
2021/08/15 07:23:03;;;;;;;7.35;4.03;;;24.20;99.90;;;;;;5011541;28;20355;-65
2021/08/15 07:25:29;;;;;;;9.05;4.43;;;24.20;99.90;;;;;;5010785;28;20076;-63
2021/08/15 07:27:55;;;;;;;12.48;4.78;;;24.20;99.90;;;;;;5010147;28;20032;-62
2021/08/15 07:30:21;;;;;;;9.57;4.40;;;24.20;99.90;;;;;;5010224;28;20043;-62
2021/08/15 07:32:55;;;;;;;9.32;4.07;;;24.20;99.90;;;;;;5011371;28;20350;-63
2021/08/15 07:35:22;;;;;;;12.13;4.65;;;24.20;99.90;;;;;;5011400;28;20401;-63
2021/08/15 07:37:48;;;;;;;9.20;4.20;;;24.20;99.90;;;;;;5008915;28;20033;-64
2021/08/15 07:40:14;;;;;;;8.35;4.03;;;24.20;99.60;;;;;;5012102;28;20022;-63
2021/08/15 07:42:40;;;;;;;7.32;3.97;;;24.10;99.40;;;;;;5011231;28;20029;-64
2021/08/15 07:45:06;;;;;;;8.18;4.18;;;24.10;99.30;;;;;;5011018;28;20045;-64
2021/08/15 07:47:32;;;;;;;8.32;4.15;;;24.10;99.40;;;;;;5007854;28;20104;-63
2021/08/15 07:49:58;;;;;;;10.20;4.18;;;24.10;99.40;;;;;;5010670;28;20485;-63
2021/08/15 07:52:23;;;;;;;6.85;3.97;;;24.10;99.40;;;;;;5009977;28;20351;-63
2021/08/15 07:54:49;;;;;;;6.85;4.03;;;24.00;99.30;;;;;;5010256;28;20017;-63
2021/08/15 07:57:16;;;;;;;8.32;3.90;;;24.10;99.20;;;;;;5008497;28;20037;-63
2021/08/15 07:59:41;;;;;;;8.73;3.83;;;24.10;99.30;;;;;;5009530;28;20072;-63
2021/08/15 08:02:07;;;;;;;7.68;3.72;;;24.10;99.40;;;;;;5011691;28;20050;-64
2021/08/15 08:04:33;;;;;;;7.60;3.92;;;24.10;99.20;;;;;;5011588;28;20433;-62
2021/08/15 08:07:02;;;;;;;8.02;4.00;;;24.10;99.30;;;;;;5010653;28;20081;-62
2021/08/15 08:09:28;;;;;;;6.07;3.47;;;24.10;99.20;;;;;;5008072;28;20422;-64
2021/08/15 08:11:55;;;;;;;9.20;3.53;;;24.20;99.10;;;;;;5007533;28;20053;-63
2021/08/15 08:14:21;;;;;;;7.80;3.85;;;24.20;99.10;;;;;;5007017;28;20042;-63
2021/08/15 08:16:47;;;;;;;7.68;4.10;;;24.30;99.30;;;;;;5011014;28;20076;-63
2021/08/15 08:19:12;;;;;;;8.85;4.25;;;24.30;99.30;;;;;;5010754;28;20030;-63
2021/08/15 08:21:38;;;;;;;8.05;3.60;;;24.30;99.40;;;;;;5000553;28;20026;-63
2021/08/15 08:24:06;;;;;;;6.53;3.90;;;24.40;99.40;;;;;;5009830;28;20100;-62
2021/08/15 08:26:32;;;;;;;7.22;3.70;;;24.40;99.40;;;;;;4994933;28;20019;-63
2021/08/15 08:28:58;;;;;;;9.02;3.97;;;24.50;99.40;;;;;;5010764;28;20049;-63
2021/08/15 08:31:23;;;;;;;8.32;3.85;;;24.50;99.20;;;;;;5011075;28;20022;-63
2021/08/15 08:33:49;;;;;;;7.07;3.83;;;24.40;99.10;;;;;;5011694;28;20022;-65
2021/08/15 08:36:15;;;;;;;7.07;3.90;;;24.50;99.20;;;;;;5011318;28;20037;-64
2021/08/15 08:38:40;;;;;;;6.07;3.53;;;24.50;99.40;;;;;;5011351;28;20470;-65
2021/08/15 08:41:08;;;;;;;7.05;3.72;;;24.50;99.50;;;;;;5015600;28;20038;-62
2021/08/15 08:43:34;;;;;;;8.15;4.03;;;24.60;99.40;;;;;;5014517;28;20017;-63
2021/08/15 08:46:00;;;;;;;8.43;3.83;;;24.60;99.50;;;;;;5015063;28;20033;-62
2021/08/15 08:48:26;;;;;;;9.95;4.20;;;24.60;99.50;;;;;;5015116;28;20064;-63
2021/08/15 08:50:52;;;;;;;9.45;4.32;;;24.60;99.50;;;;;;5014139;28;20537;-63
2021/08/15 08:53:19;;;;;;;9.98;4.10;;;24.60;99.80;;;;;;5014871;28;20482;-63
2021/08/15 08:55:45;;;;;;;11.50;4.10;;;24.70;99.40;;;;;;5015131;28;20453;-61
2021/08/15 08:58:10;;;;;;;8.55;4.05;;;24.70;99.50;;;;;;5014913;28;20022;-63
2021/08/15 09:00:36;;;;;;;9.23;3.92;;;24.70;99.50;;;;;;5014172;28;20026;-61
2021/08/15 09:03:03;;;;;;;7.68;3.90;;;24.70;99.60;;;;;;5015068;28;20375;-61
2021/08/15 09:05:34;;;;;;;8.15;4.10;;;24.70;99.60;;;;;;5013459;28;20076;-61
2021/08/15 09:08:00;;;;;;;7.63;4.53;;;24.60;99.60;;;;;;5013918;28;20441;-63
2021/08/15 09:10:40;;;;;;;7.10;3.53;;;24.60;99.70;;;;;;5012974;28;20050;-61
2021/08/15 09:13:09;;;;;;;8.23;3.63;;;24.70;99.70;;;;;;5002925;28;20038;-62
2021/08/15 09:15:35;;;;;;;11.10;4.07;;;24.70;99.80;;;;;;5011458;28;20033;-61
2021/08/15 09:18:02;;;;;;;8.25;3.95;;;24.70;99.90;;;;;;5014518;28;20057;-64
2021/08/15 09:20:44;;;;;;;6.40;3.70;;;24.70;99.80;;;;;;5013743;28;20022;-62
2021/08/15 09:23:21;;;;;;;5.45;3.38;;;24.70;99.70;;;;;;5012832;28;20033;-61
2021/08/15 09:26:06;;;;;;;6.15;3.47;;;24.70;99.70;;;;;;5025427;28;20057;-61
2021/08/15 09:28:33;;;;;;;7.53;3.42;;;24.70;99.70;;;;;;5013869;28;20069;-61
2021/08/15 09:31:14;;;;;;;7.22;3.60;;;24.70;99.70;;;;;;5014076;28;20359;-62
2021/08/15 09:33:40;;;;;;;8.80;3.83;;;24.80;99.80;;;;;;5014426;28;20030;-62
2021/08/15 09:36:10;;;;;;;6.68;3.80;;;24.80;99.80;;;;;;5014838;28;20105;-62
2021/08/15 09:38:44;;;;;;;6.07;3.20;;;24.80;99.80;;;;;;5013570;28;20026;-62
2021/08/15 09:41:23;;;;;;;5.50;3.25;;;24.80;99.80;;;;;;5014477;28;20018;-63
2021/08/15 09:43:48;;;;;;;5.97;3.10;;;24.90;99.70;;;;;;5014447;28;20056;-63
2021/08/15 09:46:14;;;;;;;5.43;3.15;;;24.90;99.80;;;;;;5014299;28;20499;-65
2021/08/15 09:48:40;;;;;;;5.50;3.42;;;24.80;99.80;;;;;;5013737;28;20117;-63
2021/08/15 09:51:20;;;;;;;5.93;3.17;;;24.90;99.80;;;;;;5013166;28;20026;-62
2021/08/15 09:53:55;;;;;;;5.68;3.47;;;24.90;99.80;;;;;;5013735;28;20049;-63
2021/08/15 09:56:34;;;;;;;5.10;3.30;;;24.90;99.80;;;;;;5013932;28;20423;-64
2021/08/15 09:59:18;;;;;;;5.68;3.63;;;24.90;99.80;;;;;;5009605;28;20026;-62
2021/08/15 10:01:46;;;;;;;6.43;3.13;;;24.90;99.90;;;;;;5012646;28;20026;-62
2021/08/15 10:04:12;;;;;;;5.60;3.42;;;24.90;99.90;;;;;;5013775;28;20105;-64
2021/08/15 10:06:41;;;;;;;5.93;3.42;;;24.90;99.90;;;;;;5013864;28;20030;-63
2021/08/15 10:09:07;;;;;;;5.82;3.33;;;24.90;99.90;;;;;;5013369;28;20037;-63
2021/08/15 10:11:34;;;;;;;5.10;3.22;;;24.90;99.90;;;;;;5013519;28;20382;-63
2021/08/15 10:14:00;;;;;;;4.95;3.28;;;24.90;99.90;;;;;;5012866;28;20038;-68
2021/08/15 10:16:49;;;;;;;5.50;2.95;;;24.90;99.90;;;;;;5005949;28;20018;-70
2021/08/15 10:19:18;;;;;;;7.15;3.20;;;25.00;99.80;;;;;;4999882;28;20046;-70
2021/08/15 10:21:46;;;;;;;4.88;3.20;;;25.10;99.80;;;;;;5005832;28;20032;-72
2021/08/15 10:24:14;;;;;;;6.35;2.95;;;25.20;99.70;;;;;;5002027;28;20068;-70
2021/08/15 10:26:51;;;;;;;4.40;3.10;;;25.10;99.80;;;;;;5011262;28;20022;-70
